createdAt,value
2019-05-21T00:01:05.157Z,36.93
2019-05-21T00:03:34.193Z,38.00
2019-05-21T00:06:41.473Z,40.67
2019-05-21T00:09:29.659Z,37.97
2019-05-21T00:12:02.143Z,40.50
2019-05-21T00:14:37.756Z,35.80
2019-05-21T00:17:06.900Z,39.43
2019-05-21T00:19:35.893Z,35.63
2019-05-21T00:22:04.936Z,35.87
2019-05-21T00:24:53.364Z,34.20
2019-05-21T00:27:41.789Z,33.83
2019-05-21T00:30:46.733Z,34.80
2019-05-21T00:33:51.389Z,32.50
2019-05-21T00:37:00.528Z,27.00
2019-05-21T00:40:05.248Z,26.80
2019-05-21T00:42:53.542Z,25.77
2019-05-21T00:45:22.766Z,24.80
2019-05-21T00:47:51.881Z,23.07
2019-05-21T00:50:40.128Z,24.50
2019-05-21T00:56:20.304Z,23.23
2019-05-21T00:59:08.485Z,24.43
2019-05-21T01:01:37.591Z,22.67
2019-05-21T01:04:06.801Z,22.93
2019-05-21T01:06:35.883Z,25.63
2019-05-21T01:09:06.295Z,24.30
2019-05-21T01:11:35.427Z,25.57
2019-05-21T01:14:04.721Z,27.00
2019-05-21T01:16:33.850Z,28.90
2019-05-21T01:19:02.971Z,29.60
2019-05-21T01:21:32.095Z,27.37
2019-05-21T01:24:01.177Z,27.50
2019-05-21T01:26:30.156Z,29.70
2019-05-21T01:28:59.140Z,29.23
2019-05-21T01:31:28.198Z,32.13
2019-05-21T01:33:57.251Z,28.37
2019-05-21T01:36:45.477Z,27.27
2019-05-21T01:39:18.045Z,27.57
2019-05-21T01:42:06.224Z,33.43
2019-05-21T01:44:48.983Z,28.63
2019-05-21T01:47:27.522Z,27.87
2019-05-21T01:49:56.630Z,30.27
2019-05-21T01:52:25.903Z,28.10
2019-05-21T01:55:14.276Z,29.33
2019-05-21T02:00:39.568Z,30.03
2019-05-21T02:06:14.353Z,32.30
2019-05-21T02:08:43.408Z,31.97
2019-05-21T02:11:12.453Z,28.03
2019-05-21T02:13:41.672Z,30.73
2019-05-21T02:16:10.777Z,33.23
2019-05-21T02:18:39.800Z,33.33
2019-05-21T02:21:08.887Z,36.63
2019-05-21T02:23:37.882Z,39.47
2019-05-21T02:26:06.943Z,37.67
2019-05-21T02:28:36.069Z,37.57
2019-05-21T02:31:05.303Z,33.30
2019-05-21T02:33:34.353Z,29.93
2019-05-21T02:36:03.448Z,27.30
2019-05-21T02:38:32.484Z,28.13
2019-05-21T02:41:01.841Z,26.43
2019-05-21T02:43:31.011Z,22.13
2019-05-21T02:46:00.120Z,25.53
2019-05-21T02:48:29.190Z,27.13
2019-05-21T02:50:58.501Z,24.50
2019-05-21T02:53:27.607Z,29.63
2019-05-21T02:55:56.823Z,26.97
2019-05-21T02:58:26.010Z,28.27
2019-05-21T03:01:24.048Z,26.53
2019-05-21T03:03:53.207Z,21.20
2019-05-21T03:06:22.387Z,22.00
2019-05-21T03:08:51.569Z,19.43
2019-05-21T03:11:21.077Z,22.27
2019-05-21T03:13:50.153Z,22.27
2019-05-21T03:16:19.240Z,23.63
2019-05-21T03:18:48.393Z,26.37
2019-05-21T03:21:17.527Z,22.07
2019-05-21T03:23:46.495Z,22.90
2019-05-21T03:26:15.640Z,21.63
2019-05-21T03:28:44.729Z,23.17
2019-05-21T03:31:39.035Z,25.23
2019-05-21T03:34:08.196Z,24.40
2019-05-21T03:36:37.395Z,17.50
2019-05-21T03:39:06.492Z,22.97
2019-05-21T03:41:35.529Z,21.37
2019-05-21T03:44:04.692Z,23.50
2019-05-21T03:46:34.218Z,20.73
2019-05-21T03:55:25.593Z,25.30
2019-05-21T03:57:54.675Z,19.50
2019-05-21T04:00:23.787Z,22.27
2019-05-21T04:02:53.064Z,19.03
2019-05-21T04:05:25.420Z,20.60
2019-05-21T04:07:54.801Z,20.30
2019-05-21T04:10:23.953Z,17.73
2019-05-21T04:13:09.079Z,22.13
2019-05-21T04:15:47.459Z,22.17
2019-05-21T04:18:21.672Z,19.80
2019-05-21T04:20:50.787Z,20.93
2019-05-21T04:23:19.857Z,20.13
2019-05-21T04:25:48.957Z,17.43
2019-05-21T04:28:18.056Z,16.70
2019-05-21T04:30:47.296Z,15.60
2019-05-21T04:33:16.348Z,17.13
2019-05-21T04:35:45.438Z,19.87
2019-05-21T04:38:33.687Z,18.67
2019-05-21T04:41:02.649Z,20.40
2019-05-21T04:43:31.720Z,20.17
2019-05-21T04:46:00.862Z,21.63
2019-05-21T04:48:30.314Z,23.87
2019-05-21T04:50:59.428Z,18.90
2019-05-21T04:53:28.618Z,17.47
2019-05-21T04:55:57.794Z,18.07
2019-05-21T04:58:26.838Z,17.07
2019-05-21T05:00:55.917Z,17.87
2019-05-21T05:03:25.132Z,18.87
2019-05-21T05:05:54.273Z,18.73
2019-05-21T05:08:23.363Z,15.30
2019-05-21T05:10:52.576Z,16.20
2019-05-21T05:13:25.352Z,16.37
2019-05-21T05:15:54.485Z,17.33
2019-05-21T05:18:23.782Z,19.43
2019-05-21T05:20:52.852Z,15.20
2019-05-21T05:23:40.998Z,18.03
2019-05-21T05:26:10.081Z,18.13
2019-05-21T05:28:58.368Z,17.03
2019-05-21T05:31:27.548Z,16.60
2019-05-21T05:34:15.690Z,17.90
2019-05-21T05:36:57.166Z,16.50
2019-05-21T05:39:26.248Z,17.03
2019-05-21T05:41:55.399Z,14.70
2019-05-21T05:44:24.444Z,16.57
2019-05-21T05:46:53.635Z,16.30
2019-05-21T05:49:28.523Z,14.07
2019-05-21T05:52:17.042Z,10.70
2019-05-21T05:54:46.155Z,14.57
2019-05-21T05:57:34.316Z,14.90
2019-05-21T06:00:03.697Z,14.73
2019-05-21T06:02:51.942Z,14.57
2019-05-21T06:05:40.230Z,11.60
2019-05-21T06:08:21.355Z,14.33
2019-05-21T06:11:06.042Z,13.60
2019-05-21T06:13:38.869Z,13.17
2019-05-21T06:19:50.992Z,14.40
2019-05-21T06:22:20.319Z,12.83
2019-05-21T06:25:15.649Z,14.47
2019-05-21T06:27:57.755Z,13.87
2019-05-21T06:30:31.395Z,13.90
2019-05-21T06:39:57.156Z,14.23
2019-05-21T06:46:13.739Z,13.20
2019-05-21T06:52:27.229Z,12.67
2019-05-21T06:55:08.589Z,12.00
2019-05-21T07:01:31.526Z,11.40
2019-05-21T07:04:08.548Z,12.97
2019-05-21T07:07:18.173Z,12.40
2019-05-21T07:17:56.437Z,17.33
2019-05-21T07:21:00.209Z,15.30
2019-05-21T07:23:30.183Z,16.50
2019-05-21T07:26:00.078Z,14.37
2019-05-21T07:28:30.183Z,13.37
2019-05-21T07:31:01.469Z,13.73
2019-05-21T07:33:39.054Z,12.83
2019-05-21T07:36:11.063Z,11.47
2019-05-21T07:38:52.545Z,12.33
2019-05-21T07:41:12.803Z,13.53
2019-05-21T07:43:42.717Z,11.87
2019-05-21T07:46:30.743Z,11.37
2019-05-21T07:49:06.023Z,10.83
2019-05-21T07:51:35.181Z,10.43
2019-05-21T07:54:04.615Z,11.47
2019-05-21T07:56:33.762Z,10.07
2019-05-21T07:59:06.040Z,9.90
2019-05-21T08:04:24.419Z,10.00
2019-05-21T08:07:02.197Z,9.60
2019-05-21T08:09:31.346Z,9.83
2019-05-21T08:12:22.829Z,8.60
2019-05-21T08:14:53.129Z,7.47
2019-05-21T08:17:22.397Z,8.77
2019-05-21T08:20:08.485Z,8.63
2019-05-21T08:22:43.983Z,8.00
2019-05-21T08:25:14.701Z,7.83
2019-05-21T08:27:44.229Z,7.37
2019-05-21T08:30:26.084Z,7.83
2019-05-21T08:32:55.811Z,6.90
2019-05-21T08:35:25.616Z,7.57
2019-05-21T08:37:55.347Z,7.80
2019-05-21T08:40:24.879Z,8.50
2019-05-21T08:42:54.256Z,9.00
2019-05-21T08:45:23.531Z,8.97
2019-05-21T08:47:52.941Z,9.23
2019-05-21T08:50:22.540Z,8.77
2019-05-21T08:52:51.742Z,7.73
2019-05-21T08:55:20.893Z,6.80
2019-05-21T08:58:05.816Z,7.90
2019-05-21T09:00:22.609Z,7.87
2019-05-21T09:03:02.636Z,6.20
2019-05-21T09:05:32.720Z,7.90
2019-05-21T09:08:15.437Z,7.27
2019-05-21T09:10:49.854Z,8.80
2019-05-21T09:13:19.119Z,8.37
2019-05-21T09:15:52.568Z,8.70
2019-05-21T09:18:23.872Z,8.03
2019-05-21T09:20:53.216Z,8.60
2019-05-21T09:23:22.407Z,7.80
2019-05-21T09:25:51.825Z,8.80
2019-05-21T09:28:21.434Z,9.87
2019-05-21T09:30:51.386Z,7.90
2019-05-21T09:33:24.436Z,8.03
2019-05-21T09:35:53.833Z,9.50
2019-05-21T09:38:22.985Z,9.97
2019-05-21T09:40:53.059Z,9.33
2019-05-21T09:43:22.392Z,9.50
2019-05-21T09:45:52.140Z,8.23
2019-05-21T09:48:21.364Z,8.53
2019-05-21T09:50:50.633Z,8.17
2019-05-21T09:53:20.275Z,9.97
2019-05-21T09:55:57.039Z,8.63
2019-05-21T09:58:37.389Z,10.23
2019-05-21T10:01:23.459Z,8.67
2019-05-21T10:03:57.428Z,8.70
2019-05-21T10:06:26.817Z,9.53
2019-05-21T10:09:01.242Z,11.70
2019-05-21T10:11:40.655Z,9.97
2019-05-21T10:14:15.959Z,10.77
2019-05-21T10:16:45.371Z,10.80
2019-05-21T10:19:14.665Z,10.27
2019-05-21T10:21:45.740Z,9.73
2019-05-21T10:24:14.938Z,9.87
2019-05-21T10:26:44.386Z,11.60
2019-05-21T10:29:16.115Z,10.23
2019-05-21T10:31:45.365Z,11.07
2019-05-21T10:34:14.613Z,9.63
2019-05-21T10:36:43.633Z,9.50
2019-05-21T10:39:13.159Z,11.23
2019-05-21T10:41:45.918Z,10.47
2019-05-21T10:44:13.441Z,10.60
2019-05-21T10:46:42.977Z,13.47
2019-05-21T10:49:12.210Z,11.90
2019-05-21T10:51:41.655Z,11.47
2019-05-21T10:54:13.325Z,12.57
2019-05-21T10:56:47.817Z,13.37
2019-05-21T10:59:13.692Z,13.03
2019-05-21T11:02:08.577Z,11.73
2019-05-21T11:04:44.985Z,11.17
2019-05-21T11:07:15.885Z,11.63
2019-05-21T11:09:45.284Z,11.57
2019-05-21T11:12:16.625Z,11.87
2019-05-21T11:14:45.881Z,11.73
2019-05-21T11:17:15.957Z,11.97
2019-05-21T11:19:45.311Z,12.33
2019-05-21T11:22:14.746Z,10.70
2019-05-21T11:24:44.219Z,11.83
2019-05-21T11:27:14.183Z,11.13
2019-05-21T11:29:44.402Z,11.13
2019-05-21T11:32:16.653Z,11.27
2019-05-21T11:34:49.805Z,10.50
2019-05-21T11:37:18.275Z,9.00
2019-05-21T11:39:49.056Z,9.83
2019-05-21T11:42:26.402Z,10.23
2019-05-21T11:44:57.545Z,11.63
2019-05-21T11:47:30.476Z,10.67
2019-05-21T11:50:01.144Z,13.50
2019-05-21T11:52:34.249Z,11.27
2019-05-21T11:55:04.344Z,11.93
2019-05-21T11:57:34.388Z,12.47
2019-05-21T12:00:08.425Z,11.63
2019-05-21T12:02:38.570Z,9.17
2019-05-21T12:05:08.279Z,11.93
2019-05-21T12:07:37.589Z,12.50
2019-05-21T12:10:07.596Z,11.53
2019-05-21T12:12:36.761Z,14.27
2019-05-21T12:15:06.949Z,9.97
2019-05-21T12:17:36.368Z,10.27
2019-05-21T12:20:06.327Z,9.67
2019-05-21T12:22:35.492Z,9.40
2019-05-21T12:25:05.418Z,12.27
2019-05-21T12:27:34.593Z,9.63
2019-05-21T12:30:04.161Z,10.83
2019-05-21T12:32:33.672Z,10.73
2019-05-21T12:35:03.061Z,12.80
2019-05-21T12:37:32.405Z,12.50
2019-05-21T12:40:01.661Z,14.07
2019-05-21T12:42:30.894Z,13.87
2019-05-21T12:45:00.085Z,13.90
2019-05-21T12:47:29.343Z,12.70
2019-05-21T12:49:58.575Z,14.27
2019-05-21T12:52:27.906Z,14.13
2019-05-21T12:54:57.162Z,11.43
2019-05-21T12:57:30.760Z,13.73
2019-05-21T13:00:00.180Z,13.20
2019-05-21T13:02:29.966Z,14.97
2019-05-21T13:04:59.174Z,15.73
2019-05-21T13:07:31.324Z,15.20
2019-05-21T13:10:00.697Z,13.57
2019-05-21T13:12:30.083Z,14.47
2019-05-21T13:14:59.562Z,13.80
2019-05-21T13:17:29.021Z,13.03
2019-05-21T13:19:58.470Z,11.40
2019-05-21T13:22:28.109Z,13.50
2019-05-21T13:24:57.586Z,11.43
2019-05-21T13:27:26.839Z,12.37
2019-05-21T13:29:56.485Z,14.13
2019-05-21T13:32:25.752Z,14.77
2019-05-21T13:34:55.054Z,13.53
2019-05-21T13:37:24.686Z,12.13
2019-05-21T13:39:53.936Z,14.20
2019-05-21T13:42:23.277Z,13.00
2019-05-21T13:44:52.618Z,14.10
2019-05-21T13:47:23.311Z,14.83
2019-05-21T13:49:52.708Z,13.37
2019-05-21T13:52:22.060Z,16.67
2019-05-21T13:54:51.274Z,14.03
2019-05-21T13:57:20.546Z,12.00
2019-05-21T13:59:49.673Z,14.27
2019-05-21T14:02:20.148Z,13.87
2019-05-21T14:04:49.386Z,13.90
2019-05-21T14:07:18.679Z,14.33
2019-05-21T14:09:48.157Z,15.07
2019-05-21T14:12:18.071Z,10.70
2019-05-21T14:14:47.271Z,14.77
2019-05-21T14:17:16.843Z,14.07
2019-05-21T14:19:51.043Z,14.23
2019-05-21T14:22:20.432Z,12.50
2019-05-21T14:24:50.093Z,14.17
2019-05-21T14:27:19.336Z,13.07
2019-05-21T14:29:50.109Z,14.83
2019-05-21T14:32:21.157Z,15.43
2019-05-21T14:35:00.788Z,14.87
2019-05-21T14:37:21.283Z,14.77
2019-05-21T14:39:50.454Z,15.30
2019-05-21T14:42:19.903Z,13.43
2019-05-21T14:44:49.401Z,14.13
2019-05-21T14:47:18.579Z,15.13
2019-05-21T14:49:47.822Z,15.23
2019-05-21T14:52:18.803Z,14.27
2019-05-21T14:54:48.102Z,15.57
2019-05-21T14:57:17.975Z,16.33
2019-05-21T14:59:47.100Z,15.00
2019-05-21T15:02:16.303Z,15.80
2019-05-21T15:04:45.798Z,14.30
2019-05-21T15:07:15.195Z,14.43
2019-05-21T15:09:44.385Z,14.20
2019-05-21T15:12:13.575Z,14.27
2019-05-21T15:14:42.878Z,15.57
2019-05-21T15:17:12.067Z,15.80
2019-05-21T15:19:43.017Z,16.23
2019-05-21T15:22:12.100Z,15.57
2019-05-21T15:24:41.239Z,16.27
2019-05-21T15:27:10.445Z,16.07
2019-05-21T15:29:39.668Z,16.50
2019-05-21T15:32:09.012Z,14.73
2019-05-21T15:35:26.353Z,16.03
2019-05-21T15:38:14.563Z,15.47
2019-05-21T15:40:47.024Z,15.67
2019-05-21T15:43:35.312Z,16.17
2019-05-21T15:46:47.914Z,17.30
2019-05-21T15:49:11.180Z,16.87
2019-05-21T15:54:39.958Z,15.17
2019-05-21T15:57:28.149Z,12.57
2019-05-21T16:03:00.927Z,12.57
2019-05-21T16:05:30.003Z,15.47
2019-05-21T16:08:18.463Z,15.73
2019-05-21T16:10:47.865Z,16.40
2019-05-21T16:13:16.982Z,16.57
2019-05-21T16:15:57.964Z,16.07
2019-05-21T16:24:17.176Z,12.97
2019-05-21T16:26:46.325Z,17.30
2019-05-21T16:29:15.537Z,16.07
2019-05-21T16:34:47.855Z,17.70
2019-05-21T16:37:57.166Z,16.17
2019-05-21T16:40:44.522Z,18.17
2019-05-21T16:43:13.871Z,17.47
2019-05-21T16:46:13.884Z,19.47
2019-05-21T16:48:44.918Z,18.17
2019-05-21T16:51:33.394Z,17.87
2019-05-21T16:54:04.266Z,19.00
2019-05-21T16:56:43.981Z,17.93
2019-05-21T16:59:51.376Z,19.37
2019-05-21T17:02:20.706Z,16.37
2019-05-21T17:04:49.859Z,18.83
2019-05-21T17:07:18.943Z,17.63
2019-05-21T17:10:07.144Z,18.90
2019-05-21T17:12:57.152Z,13.90
2019-05-21T17:15:38.187Z,19.67
2019-05-21T17:18:41.408Z,19.40
2019-05-21T17:21:45.396Z,19.40
2019-05-21T17:24:27.898Z,18.73
2019-05-21T17:27:09.487Z,18.87
2019-05-21T17:30:09.749Z,20.30
2019-05-21T17:32:48.597Z,20.43
2019-05-21T17:35:19.297Z,20.20
2019-05-21T17:38:11.189Z,16.83
2019-05-21T17:40:59.535Z,19.10
2019-05-21T17:43:32.412Z,18.17
2019-05-21T17:46:21.969Z,20.07
2019-05-21T17:48:52.937Z,18.97
2019-05-21T17:51:41.537Z,19.43
2019-05-21T17:54:55.584Z,17.77
2019-05-21T17:57:28.699Z,18.70
2019-05-21T18:00:01.971Z,20.20
2019-05-21T18:02:32.021Z,19.30
2019-05-21T18:05:01.409Z,18.03
2019-05-21T18:07:57.157Z,19.47
2019-05-21T18:14:11.805Z,21.23
2019-05-21T18:22:26.597Z,17.77
2019-05-21T18:24:55.754Z,20.20
2019-05-21T18:27:44.019Z,19.30
2019-05-21T18:30:34.728Z,16.50
2019-05-21T18:45:08.346Z,21.40
2019-05-21T18:47:37.491Z,22.10
2019-05-21T18:50:06.635Z,22.03
2019-05-21T18:52:35.773Z,22.40
2019-05-21T18:55:24.242Z,20.90
2019-05-21T18:58:12.534Z,19.83
2019-05-21T19:00:45.308Z,22.90
2019-05-21T19:03:14.466Z,22.20
2019-05-21T19:06:02.714Z,21.97
2019-05-21T19:08:35.100Z,19.83
2019-05-21T19:11:23.257Z,16.93
2019-05-21T19:14:10.998Z,14.03
2019-05-21T19:16:50.555Z,13.07
2019-05-21T19:19:19.672Z,12.43
2019-05-21T19:22:07.917Z,11.47
2019-05-21T19:27:35.996Z,10.10
2019-05-21T19:30:24.268Z,8.73
2019-05-21T19:33:18.701Z,9.80
2019-05-21T19:36:27.820Z,13.03
2019-05-21T19:39:20.572Z,13.27
2019-05-21T19:41:58.595Z,13.70
2019-05-21T19:44:30.955Z,14.77
2019-05-21T19:47:02.178Z,14.20
2019-05-21T19:49:31.343Z,12.50
2019-05-21T19:52:19.643Z,15.27
2019-05-21T19:54:48.654Z,14.60
2019-05-21T19:57:19.831Z,13.40
2019-05-21T19:59:48.988Z,12.53
2019-05-21T20:02:18.734Z,14.30
2019-05-21T20:05:15.691Z,13.83
2019-05-21T20:07:45.140Z,13.90
2019-05-21T20:10:34.293Z,14.43
2019-05-21T20:13:07.185Z,14.17
2019-05-21T20:15:36.204Z,13.50
2019-05-21T20:18:17.956Z,11.90
2019-05-21T20:21:03.456Z,12.83
2019-05-21T20:23:35.909Z,13.53
2019-05-21T20:26:37.438Z,12.63
2019-05-21T20:29:13.835Z,12.13
2019-05-21T20:32:02.127Z,12.87
2019-05-21T20:34:31.294Z,11.70
2019-05-21T20:37:23.636Z,12.50
2019-05-21T20:39:53.343Z,11.83
2019-05-21T20:42:41.641Z,12.07
2019-05-21T20:45:19.182Z,11.33
2019-05-21T20:47:50.409Z,10.13
2019-05-21T20:50:20.062Z,10.10
2019-05-21T20:53:18.917Z,9.73
2019-05-21T21:01:52.506Z,9.53
2019-05-21T21:04:40.741Z,9.83
2019-05-21T21:07:21.705Z,8.13
2019-05-21T21:10:25.746Z,9.00
2019-05-21T21:16:23.824Z,7.47
2019-05-21T21:18:56.264Z,6.70
2019-05-21T21:21:41.617Z,6.00
2019-05-21T21:24:38.720Z,6.43
2019-05-21T21:27:08.371Z,6.60
2019-05-21T21:29:56.575Z,6.10
2019-05-21T21:35:27.131Z,6.67
2019-05-21T21:41:36.609Z,7.23
2019-05-21T21:44:09.460Z,7.47
2019-05-21T21:52:39.626Z,7.10
2019-05-21T21:55:31.287Z,6.80
2019-05-21T21:58:10.369Z,7.50
2019-05-21T22:01:50.817Z,6.83
2019-05-21T22:04:25.199Z,7.97
2019-05-21T22:06:55.582Z,8.23
2019-05-21T22:09:43.915Z,6.90
2019-05-21T22:12:32.301Z,6.83
2019-05-21T22:15:06.152Z,8.20
2019-05-21T22:17:35.575Z,7.20
2019-05-21T22:20:50.838Z,7.37
2019-05-21T22:23:39.323Z,7.67
2019-05-21T22:26:35.146Z,8.13
2019-05-21T22:29:15.076Z,8.50
2019-05-21T22:31:55.920Z,9.17
2019-05-21T22:34:44.247Z,8.97
2019-05-21T22:37:42.922Z,7.37
2019-05-21T22:40:14.188Z,8.33
2019-05-21T22:43:29.493Z,8.83
2019-05-21T23:00:33.740Z,8.90
2019-05-21T23:03:02.960Z,7.77
2019-05-21T23:05:32.120Z,7.33
2019-05-21T23:08:01.730Z,6.20
2019-05-21T23:11:22.866Z,7.50
2019-05-21T23:14:02.870Z,6.03
2019-05-21T23:16:47.392Z,6.60
2019-05-21T23:20:15.804Z,7.57
2019-05-21T23:22:58.517Z,6.73
2019-05-21T23:26:05.898Z,7.90
2019-05-21T23:28:46.630Z,7.10
2019-05-21T23:31:16.288Z,7.47
2019-05-21T23:33:45.413Z,6.57
2019-05-21T23:36:14.618Z,6.37
2019-05-21T23:39:04.594Z,5.67
2019-05-21T23:41:34.297Z,7.20
2019-05-21T23:44:05.712Z,6.67
2019-05-21T23:46:34.968Z,5.10
2019-05-21T23:49:32.375Z,5.83
2019-05-21T23:52:37.471Z,5.40
2019-05-21T23:55:09.260Z,5.23
2019-05-21T23:57:38.660Z,5.57
